createdAt,value
2019-03-29T00:02:16.389Z,47.27
2019-03-29T00:04:50.358Z,46.97
2019-03-29T00:07:23.552Z,43.27
2019-03-29T00:09:56.713Z,44.23
2019-03-29T00:12:30.927Z,43.23
2019-03-29T00:15:04.661Z,43.17
2019-03-29T00:17:37.931Z,49.03
2019-03-29T00:20:11.099Z,47.67
2019-03-29T00:22:44.290Z,44.33
2019-03-29T00:25:17.473Z,43.90
2019-03-29T00:27:50.100Z,44.80
2019-03-29T00:30:23.278Z,44.87
2019-03-29T00:32:56.470Z,38.43
2019-03-29T00:35:30.506Z,47.93
2019-03-29T00:38:03.760Z,47.90
2019-03-29T00:40:36.402Z,38.50
2019-03-29T00:43:09.583Z,44.13
2019-03-29T00:45:42.814Z,41.90
2019-03-29T00:48:15.977Z,43.30
2019-03-29T00:50:49.162Z,43.20
2019-03-29T00:53:22.342Z,38.33
2019-03-29T00:55:55.550Z,41.03
2019-03-29T00:58:28.745Z,39.20
2019-03-29T01:01:01.930Z,48.97
2019-03-29T01:03:35.115Z,43.30
2019-03-29T01:06:08.381Z,43.97
2019-03-29T01:08:41.558Z,49.80
2019-03-29T01:11:14.950Z,45.27
2019-03-29T01:13:48.188Z,48.37
2019-03-29T01:16:21.371Z,44.70
2019-03-29T01:18:54.690Z,44.40
2019-03-29T01:21:27.874Z,46.20
2019-03-29T01:24:01.051Z,50.10
2019-03-29T01:26:34.234Z,42.77
2019-03-29T01:29:07.416Z,47.30
2019-03-29T01:31:40.978Z,45.80
2019-03-29T01:34:14.438Z,47.93
2019-03-29T01:36:47.613Z,48.53
2019-03-29T01:39:21.123Z,46.07
2019-03-29T01:41:54.301Z,42.40
2019-03-29T01:44:28.023Z,41.97
2019-03-29T01:47:01.535Z,44.97
2019-03-29T01:49:34.699Z,46.97
2019-03-29T01:52:07.879Z,42.90
2019-03-29T01:54:41.045Z,43.20
2019-03-29T01:57:14.317Z,36.70
2019-03-29T01:59:47.513Z,41.90
2019-03-29T02:02:21.028Z,40.17
2019-03-29T02:04:54.297Z,38.03
2019-03-29T02:07:27.498Z,41.17
2019-03-29T02:10:00.725Z,35.13
2019-03-29T02:12:33.998Z,40.37
2019-03-29T02:15:07.286Z,36.60
2019-03-29T02:17:40.461Z,32.60
2019-03-29T02:20:13.629Z,33.90
2019-03-29T02:22:46.836Z,37.80
2019-03-29T02:25:20.018Z,34.87
2019-03-29T02:27:53.271Z,32.00
2019-03-29T02:33:54.007Z,35.70
2019-03-29T02:36:27.183Z,33.27
2019-03-29T02:39:00.371Z,30.87
2019-03-29T02:41:33.543Z,33.27
2019-03-29T02:44:07.620Z,33.70
2019-03-29T02:46:41.164Z,34.33
2019-03-29T02:49:14.339Z,32.83
2019-03-29T02:51:47.534Z,30.47
2019-03-29T02:54:20.693Z,28.07
2019-03-29T02:56:53.955Z,28.33
2019-03-29T02:59:27.131Z,33.07
2019-03-29T03:02:00.277Z,32.17
2019-03-29T03:04:33.484Z,27.40
2019-03-29T03:07:06.666Z,30.50
2019-03-29T03:09:39.834Z,28.50
2019-03-29T03:12:13.011Z,31.57
2019-03-29T03:14:46.190Z,27.23
2019-03-29T03:17:19.431Z,27.63
2019-03-29T03:19:52.602Z,30.40
2019-03-29T03:22:25.763Z,30.33
2019-03-29T03:24:58.935Z,30.60
2019-03-29T03:27:32.089Z,31.10
2019-03-29T03:30:06.470Z,30.00
2019-03-29T03:32:39.670Z,30.23
2019-03-29T03:35:12.986Z,31.70
2019-03-29T03:37:46.150Z,29.13
2019-03-29T03:40:19.367Z,34.67
2019-03-29T03:42:52.535Z,32.73
2019-03-29T03:45:25.719Z,33.70
2019-03-29T03:48:00.193Z,31.23
2019-03-29T03:50:40.133Z,28.53
2019-03-29T03:53:13.330Z,29.87
2019-03-29T03:55:46.514Z,32.13
2019-03-29T03:58:19.695Z,31.13
2019-03-29T04:00:56.818Z,36.57
2019-03-29T04:03:29.993Z,32.13
2019-03-29T04:06:03.162Z,37.27
2019-03-29T04:08:36.341Z,31.70
2019-03-29T04:11:09.517Z,31.73
2019-03-29T04:13:42.690Z,33.53
2019-03-29T04:16:15.884Z,33.53
2019-03-29T04:18:49.056Z,30.17
2019-03-29T04:21:22.250Z,29.33
2019-03-29T04:23:55.420Z,34.10
2019-03-29T04:26:28.605Z,31.03
2019-03-29T04:29:04.974Z,31.03
2019-03-29T04:31:36.654Z,29.50
2019-03-29T04:34:09.830Z,32.17
2019-03-29T04:36:43.016Z,32.77
2019-03-29T04:39:16.245Z,27.53
2019-03-29T04:41:49.408Z,26.87
2019-03-29T04:44:22.590Z,30.23
2019-03-29T04:46:55.765Z,28.63
2019-03-29T04:49:28.926Z,33.23
2019-03-29T04:52:02.098Z,30.60
2019-03-29T04:54:35.265Z,33.53
2019-03-29T04:57:08.429Z,32.63
2019-03-29T04:59:41.601Z,32.60
2019-03-29T05:02:14.771Z,29.70
2019-03-29T05:04:47.937Z,28.30
2019-03-29T05:07:21.199Z,31.60
2019-03-29T05:09:54.353Z,30.60
2019-03-29T05:12:27.540Z,29.50
2019-03-29T05:15:00.735Z,27.87
2019-03-29T05:17:33.907Z,29.80
2019-03-29T05:20:07.102Z,29.27
2019-03-29T05:22:40.269Z,27.67
2019-03-29T05:25:13.435Z,29.13
2019-03-29T05:27:46.625Z,30.97
2019-03-29T05:30:19.779Z,29.77
2019-03-29T05:32:52.967Z,28.10
2019-03-29T05:35:26.179Z,27.50
2019-03-29T05:37:59.371Z,28.70
2019-03-29T05:40:35.225Z,23.27
2019-03-29T05:43:06.930Z,24.73
2019-03-29T05:45:39.562Z,23.93
2019-03-29T05:48:12.209Z,24.13
2019-03-29T05:50:45.399Z,25.47
2019-03-29T05:53:19.057Z,24.57
2019-03-29T05:55:52.214Z,24.60
2019-03-29T05:58:25.386Z,21.07
2019-03-29T06:00:58.561Z,20.70
2019-03-29T06:03:31.777Z,21.33
2019-03-29T06:06:04.954Z,22.20
2019-03-29T06:08:38.174Z,20.70
2019-03-29T06:11:11.339Z,15.13
2019-03-29T06:13:44.521Z,18.50
2019-03-29T06:16:17.673Z,19.57
2019-03-29T06:18:50.839Z,17.60
2019-03-29T06:21:24.012Z,17.53
2019-03-29T06:23:57.218Z,14.40
2019-03-29T06:26:30.395Z,13.13
2019-03-29T06:29:03.658Z,16.07
2019-03-29T06:31:36.862Z,12.57
2019-03-29T06:34:10.043Z,13.77
2019-03-29T06:36:43.210Z,14.20
2019-03-29T06:39:16.420Z,10.73
2019-03-29T06:41:49.612Z,15.23
2019-03-29T06:44:22.801Z,12.00
2019-03-29T06:46:57.329Z,13.17
2019-03-29T06:49:30.560Z,15.53
2019-03-29T06:52:03.728Z,11.73
2019-03-29T06:54:36.950Z,13.90
2019-03-29T06:57:10.131Z,13.83
2019-03-29T06:59:43.338Z,11.90
2019-03-29T07:02:16.542Z,13.30
2019-03-29T07:04:49.814Z,14.53
2019-03-29T07:07:22.978Z,12.83
2019-03-29T07:10:00.726Z,11.00
2019-03-29T07:12:35.334Z,13.13
2019-03-29T07:15:08.511Z,12.70
2019-03-29T07:17:41.687Z,14.47
2019-03-29T07:20:14.897Z,13.17
2019-03-29T07:22:48.170Z,13.10
2019-03-29T07:25:21.349Z,11.67
2019-03-29T07:27:54.567Z,12.87
2019-03-29T07:30:27.780Z,16.27
2019-03-29T07:33:00.945Z,14.45
2019-03-29T07:35:34.124Z,12.87
2019-03-29T07:38:07.780Z,10.73
2019-03-29T07:40:40.997Z,12.57
2019-03-29T07:43:14.186Z,11.80
2019-03-29T07:45:47.355Z,13.70
2019-03-29T07:48:20.513Z,12.83
2019-03-29T07:50:53.689Z,13.23
2019-03-29T07:53:26.862Z,13.50
2019-03-29T07:56:00.026Z,16.73
2019-03-29T07:58:33.250Z,14.33
2019-03-29T08:01:06.421Z,13.93
2019-03-29T08:03:39.618Z,14.00
2019-03-29T08:06:12.788Z,13.57
2019-03-29T08:08:45.414Z,13.13
2019-03-29T08:11:25.946Z,13.10
2019-03-29T08:13:54.562Z,19.57
2019-03-29T08:16:27.821Z,14.93
2019-03-29T08:19:00.999Z,14.80
2019-03-29T08:21:34.197Z,11.90
2019-03-29T08:24:07.392Z,13.40
2019-03-29T08:26:40.565Z,16.97
2019-03-29T08:29:13.780Z,13.97
2019-03-29T08:31:47.118Z,18.57
2019-03-29T08:34:21.286Z,12.67
2019-03-29T08:36:54.464Z,13.17
2019-03-29T08:39:28.508Z,17.40
2019-03-29T08:42:01.923Z,17.27
2019-03-29T08:44:35.114Z,17.30
2019-03-29T08:47:08.307Z,17.03
2019-03-29T08:49:41.490Z,18.57
2019-03-29T08:52:15.656Z,18.37
2019-03-29T08:54:51.173Z,18.90
2019-03-29T08:57:23.989Z,15.40
2019-03-29T08:59:57.161Z,17.80
2019-03-29T09:02:30.335Z,16.23
2019-03-29T09:05:03.648Z,18.67
2019-03-29T09:07:44.584Z,18.77
2019-03-29T09:10:22.279Z,20.73
2019-03-29T09:12:55.465Z,17.53
2019-03-29T09:15:28.670Z,16.87
2019-03-29T09:18:01.879Z,22.63
2019-03-29T09:20:35.065Z,18.97
2019-03-29T09:23:10.404Z,18.00
2019-03-29T09:25:43.154Z,21.00
2019-03-29T09:28:16.315Z,16.50
2019-03-29T09:30:49.499Z,19.77
2019-03-29T09:33:22.661Z,18.87
2019-03-29T09:35:55.864Z,18.00
2019-03-29T09:38:29.023Z,16.67
2019-03-29T09:41:01.659Z,20.00
2019-03-29T09:43:34.833Z,19.90
2019-03-29T09:46:08.012Z,17.57
2019-03-29T09:48:41.181Z,20.80
2019-03-29T09:51:14.364Z,16.50
2019-03-29T09:53:47.544Z,16.63
2019-03-29T09:56:20.886Z,20.77
2019-03-29T09:58:54.056Z,15.43
2019-03-29T10:01:27.352Z,14.60
2019-03-29T10:04:00.793Z,17.50
2019-03-29T10:06:33.989Z,17.43
2019-03-29T10:09:07.313Z,12.73
2019-03-29T10:11:40.526Z,13.73
2019-03-29T10:14:13.812Z,17.77
2019-03-29T10:16:46.974Z,15.77
2019-03-29T10:19:20.166Z,13.73
2019-03-29T10:21:53.358Z,12.60
2019-03-29T10:24:26.975Z,13.23
2019-03-29T10:27:00.157Z,11.70
2019-03-29T10:29:33.325Z,11.90
2019-03-29T10:32:09.457Z,10.63
2019-03-29T10:34:41.380Z,11.47
2019-03-29T10:37:14.585Z,13.00
2019-03-29T10:39:47.750Z,10.57
2019-03-29T10:42:20.926Z,15.77
2019-03-29T10:44:54.097Z,11.00
2019-03-29T10:47:42.594Z,9.33
2019-03-29T10:50:02.183Z,10.83
2019-03-29T10:52:35.410Z,11.40
2019-03-29T10:55:08.565Z,9.13
2019-03-29T10:57:41.738Z,9.87
2019-03-29T11:00:21.545Z,8.83
2019-03-29T11:02:54.903Z,9.23
2019-03-29T11:05:28.067Z,13.13
2019-03-29T11:08:01.253Z,9.57
2019-03-29T11:10:35.122Z,9.23
2019-03-29T11:13:13.370Z,10.87
2019-03-29T11:15:43.198Z,10.07
2019-03-29T11:18:17.225Z,7.90
2019-03-29T11:20:50.380Z,7.90
2019-03-29T11:23:23.558Z,9.30
2019-03-29T11:25:56.722Z,7.43
2019-03-29T11:28:29.894Z,7.90
2019-03-29T11:31:03.166Z,9.50
2019-03-29T11:33:36.339Z,9.57
2019-03-29T11:36:09.592Z,11.67
2019-03-29T11:38:42.761Z,14.13
2019-03-29T11:41:15.959Z,8.60
2019-03-29T11:43:49.134Z,8.07
2019-03-29T11:46:22.302Z,9.60
2019-03-29T11:48:55.498Z,10.40
2019-03-29T11:51:28.658Z,9.63
2019-03-29T11:54:01.836Z,12.53
2019-03-29T11:56:34.994Z,9.47
2019-03-29T11:59:08.174Z,6.53
2019-03-29T12:01:41.338Z,5.30
2019-03-29T12:04:14.506Z,5.50
2019-03-29T12:06:47.671Z,4.83
2019-03-29T12:09:20.855Z,5.60
2019-03-29T12:11:54.026Z,6.40
2019-03-29T12:14:27.202Z,7.27
2019-03-29T12:17:00.430Z,4.00
2019-03-29T12:19:33.602Z,8.80
2019-03-29T12:22:06.818Z,5.00
2019-03-29T12:24:39.992Z,5.30
2019-03-29T12:27:13.152Z,5.40
2019-03-29T12:29:46.394Z,6.97
2019-03-29T12:32:19.638Z,6.30
2019-03-29T12:34:52.806Z,4.77
2019-03-29T12:37:25.985Z,5.03
2019-03-29T12:39:59.162Z,5.37
2019-03-29T12:42:32.328Z,6.37
2019-03-29T12:45:05.773Z,6.90
2019-03-29T12:47:38.954Z,5.93
2019-03-29T12:50:12.126Z,4.17
2019-03-29T12:52:45.291Z,6.60
2019-03-29T12:55:18.479Z,4.33
2019-03-29T12:57:51.642Z,4.97
2019-03-29T13:00:24.831Z,6.93
2019-03-29T13:02:58.003Z,5.30
2019-03-29T13:05:31.194Z,4.53
2019-03-29T13:08:04.368Z,4.53
2019-03-29T13:10:37.530Z,6.50
2019-03-29T13:13:10.709Z,6.37
2019-03-29T13:15:43.891Z,5.10
2019-03-29T13:18:17.057Z,5.13
2019-03-29T13:20:50.309Z,5.40
2019-03-29T13:23:23.482Z,8.77
2019-03-29T13:25:56.654Z,8.80
2019-03-29T13:28:29.818Z,7.27
2019-03-29T13:31:02.994Z,5.70
2019-03-29T13:33:36.152Z,5.67
2019-03-29T13:36:10.448Z,5.10
2019-03-29T13:38:43.614Z,8.57
2019-03-29T13:41:16.800Z,5.53
2019-03-29T13:43:49.989Z,5.33
2019-03-29T13:46:23.161Z,4.63
2019-03-29T13:48:56.342Z,8.03
2019-03-29T13:51:29.543Z,5.93
2019-03-29T13:54:02.711Z,5.33
2019-03-29T13:56:35.907Z,5.37
2019-03-29T13:59:09.062Z,5.30
2019-03-29T14:01:42.225Z,4.20
2019-03-29T14:04:15.417Z,5.97
2019-03-29T14:06:48.696Z,6.33
2019-03-29T14:09:21.870Z,4.23
2019-03-29T14:11:55.055Z,5.17
2019-03-29T14:14:38.042Z,6.60
2019-03-29T14:17:04.502Z,5.10
2019-03-29T14:19:37.662Z,4.27
2019-03-29T14:22:10.833Z,7.87
2019-03-29T14:24:43.991Z,4.37
2019-03-29T14:27:17.231Z,6.87
2019-03-29T14:30:03.241Z,6.63
2019-03-29T14:32:25.286Z,6.43
2019-03-29T14:34:58.442Z,4.83
2019-03-29T14:37:31.705Z,3.80
2019-03-29T14:40:05.779Z,5.00
2019-03-29T14:42:38.956Z,4.17
2019-03-29T14:45:12.118Z,4.60
2019-03-29T14:47:45.293Z,6.10
2019-03-29T14:50:18.529Z,4.03
2019-03-29T14:52:51.705Z,5.13
2019-03-29T14:55:24.866Z,6.17
2019-03-29T14:57:58.130Z,3.30
2019-03-29T15:00:41.666Z,5.43
2019-03-29T15:03:14.853Z,5.60
2019-03-29T15:05:48.105Z,4.00
2019-03-29T15:08:21.287Z,4.50
2019-03-29T15:10:54.470Z,3.77
2019-03-29T15:13:27.638Z,5.07
2019-03-29T15:16:00.823Z,4.53
2019-03-29T15:18:33.973Z,7.43
2019-03-29T15:21:10.327Z,4.47
2019-03-29T15:23:42.099Z,3.50
2019-03-29T15:26:15.266Z,4.67
2019-03-29T15:28:48.501Z,5.17
2019-03-29T15:31:21.703Z,4.93
2019-03-29T15:33:55.792Z,5.30
2019-03-29T15:36:29.112Z,3.77
2019-03-29T16:08:27.314Z,3.03
2019-03-29T16:11:00.526Z,3.80
2019-03-29T16:13:33.718Z,3.17
2019-03-29T16:16:06.891Z,3.37
2019-03-29T16:18:40.141Z,3.83
2019-03-29T16:21:13.334Z,3.20
2019-03-29T16:23:46.516Z,4.30
2019-03-29T16:26:19.716Z,3.97
2019-03-29T16:28:52.879Z,3.77
2019-03-29T16:31:26.079Z,3.77
2019-03-29T16:33:59.263Z,3.87
2019-03-29T16:36:32.454Z,4.30
2019-03-29T16:39:06.379Z,3.83
2019-03-29T16:41:39.652Z,3.87
2019-03-29T16:44:12.910Z,4.30
2019-03-29T16:46:46.190Z,2.97
2019-03-29T16:49:19.442Z,4.73
2019-03-29T16:51:52.614Z,6.33
2019-03-29T16:54:25.794Z,6.20
2019-03-29T16:56:58.967Z,3.50
2019-03-29T16:59:32.152Z,3.87
2019-03-29T17:02:05.319Z,4.23
2019-03-29T17:04:38.511Z,4.00
2019-03-29T17:07:11.686Z,6.10
2019-03-29T17:09:44.867Z,6.70
2019-03-29T17:12:18.033Z,5.70
2019-03-29T17:14:51.229Z,3.33
2019-03-29T17:17:24.404Z,6.07
2019-03-29T17:19:57.587Z,3.67
2019-03-29T17:22:30.755Z,3.43
2019-03-29T17:25:04.643Z,3.80
2019-03-29T17:27:37.841Z,4.97
2019-03-29T17:30:11.106Z,8.37
2019-03-29T17:32:44.287Z,4.63
2019-03-29T17:35:17.471Z,4.90
2019-03-29T17:37:50.652Z,3.97
2019-03-29T17:40:23.831Z,4.87
2019-03-29T17:42:57.004Z,4.60
2019-03-29T17:45:30.188Z,4.70
2019-03-29T17:48:03.439Z,5.40
2019-03-29T17:50:36.932Z,4.73
2019-03-29T17:53:10.094Z,3.87
2019-03-29T17:55:43.290Z,4.13
2019-03-29T17:58:16.466Z,4.70
2019-03-29T18:00:49.674Z,5.23
2019-03-29T18:03:22.848Z,6.13
2019-03-29T18:05:56.058Z,5.83
2019-03-29T18:08:29.241Z,5.00
2019-03-29T18:11:02.428Z,5.57
2019-03-29T18:13:35.607Z,4.57
2019-03-29T18:16:08.802Z,5.13
2019-03-29T18:18:42.002Z,6.30
2019-03-29T18:21:14.642Z,4.57
2019-03-29T18:23:48.215Z,6.20
2019-03-29T18:26:21.483Z,6.97
2019-03-29T18:28:54.650Z,7.97
2019-03-29T18:31:27.835Z,6.37
2019-03-29T18:34:01.011Z,5.83
2019-03-29T18:36:34.194Z,4.87
2019-03-29T18:39:07.395Z,6.33
2019-03-29T18:41:40.654Z,5.80
2019-03-29T18:44:13.825Z,5.40
2019-03-29T18:46:47.203Z,7.77
2019-03-29T18:49:20.564Z,8.40
2019-03-29T18:51:53.849Z,10.60
2019-03-29T18:54:27.010Z,11.60
2019-03-29T18:57:00.199Z,12.23
2019-03-29T18:59:33.379Z,10.27
2019-03-29T19:02:06.554Z,11.53
2019-03-29T19:04:39.722Z,6.97
2019-03-29T19:07:12.911Z,6.70
2019-03-29T19:09:46.083Z,6.00
2019-03-29T19:12:19.267Z,8.60
2019-03-29T19:14:52.443Z,7.57
2019-03-29T19:17:25.618Z,8.30
2019-03-29T19:19:58.854Z,6.67
2019-03-29T19:22:32.125Z,8.50
2019-03-29T19:25:05.574Z,8.40
2019-03-29T19:27:38.761Z,7.33
2019-03-29T19:30:12.101Z,9.13
2019-03-29T19:32:45.311Z,7.13
2019-03-29T19:35:18.503Z,8.30
2019-03-29T19:37:51.693Z,8.90
2019-03-29T19:40:24.886Z,12.77
2019-03-29T19:42:58.069Z,7.30
2019-03-29T19:45:34.188Z,8.13
2019-03-29T19:48:06.143Z,14.50
2019-03-29T19:50:39.338Z,12.00
2019-03-29T19:53:12.535Z,9.47
2019-03-29T19:55:45.718Z,9.47
2019-03-29T19:58:18.972Z,7.20
2019-03-29T20:00:52.249Z,9.03
2019-03-29T20:03:25.412Z,8.87
2019-03-29T20:05:58.591Z,7.10
2019-03-29T20:08:31.790Z,8.13
2019-03-29T20:11:04.968Z,7.10
2019-03-29T20:13:38.223Z,6.83
2019-03-29T20:16:11.469Z,8.30
2019-03-29T20:18:44.654Z,6.43
2019-03-29T20:21:17.829Z,5.90
2019-03-29T20:23:51.037Z,7.33
2019-03-29T20:26:24.208Z,6.80
2019-03-29T20:28:57.390Z,8.70
2019-03-29T20:31:30.564Z,8.60
2019-03-29T20:34:03.217Z,7.83
2019-03-29T20:36:36.375Z,7.00
2019-03-29T20:39:09.550Z,7.50
2019-03-29T20:41:42.771Z,10.67
2019-03-29T20:44:15.937Z,15.20
2019-03-29T20:46:48.681Z,8.97
2019-03-29T20:49:21.307Z,9.30
2019-03-29T20:51:54.486Z,10.93
2019-03-29T20:54:27.662Z,6.70
2019-03-29T20:57:00.360Z,7.53
2019-03-29T20:59:33.534Z,10.10
2019-03-29T21:02:06.172Z,8.60
2019-03-29T21:04:38.807Z,11.30
2019-03-29T21:07:11.486Z,15.87
2019-03-29T21:09:44.240Z,10.57
2019-03-29T21:12:16.861Z,9.23
2019-03-29T21:14:50.049Z,10.77
2019-03-29T21:17:23.219Z,6.90
2019-03-29T21:19:56.379Z,8.20
2019-03-29T21:22:29.588Z,12.50
2019-03-29T21:25:03.102Z,17.73
2019-03-29T21:27:36.550Z,13.90
2019-03-29T21:30:10.039Z,9.60
2019-03-29T21:32:43.211Z,9.13
2019-03-29T21:35:16.388Z,8.60
2019-03-29T21:37:49.585Z,7.50
2019-03-29T21:40:22.820Z,9.10
2019-03-29T21:42:57.228Z,10.67
2019-03-29T21:45:30.566Z,8.27
2019-03-29T21:48:26.934Z,6.87
2019-03-29T21:50:38.815Z,7.17
2019-03-29T21:53:12.014Z,9.00
2019-03-29T21:55:45.202Z,7.43
2019-03-29T21:58:18.410Z,7.67
2019-03-29T22:00:51.605Z,6.33
2019-03-29T22:03:24.767Z,8.67
2019-03-29T22:05:57.935Z,8.50
2019-03-29T22:08:31.110Z,9.20
2019-03-29T22:11:04.280Z,8.57
2019-03-29T22:13:37.474Z,16.63
2019-03-29T22:16:10.660Z,12.93
2019-03-29T22:18:43.839Z,9.77
2019-03-29T22:21:17.013Z,14.03
2019-03-29T22:23:50.221Z,17.53
2019-03-29T22:26:23.410Z,13.63
2019-03-29T22:28:56.582Z,9.80
2019-03-29T22:31:29.748Z,8.27
2019-03-29T22:34:02.942Z,9.10
2019-03-29T22:36:36.147Z,5.70
2019-03-29T22:39:09.398Z,8.70
2019-03-29T22:41:42.570Z,7.03
2019-03-29T22:44:15.807Z,7.83
2019-03-29T22:46:48.978Z,7.67
2019-03-29T22:49:22.158Z,7.00
2019-03-29T22:51:55.333Z,10.53
2019-03-29T22:54:28.523Z,8.57
2019-03-29T22:57:01.796Z,7.73
2019-03-29T22:59:35.081Z,7.17
2019-03-29T23:02:08.268Z,4.63
2019-03-29T23:04:41.451Z,6.53
2019-03-29T23:07:14.627Z,5.53
2019-03-29T23:09:47.814Z,10.87
2019-03-29T23:12:20.990Z,8.47
2019-03-29T23:14:54.178Z,7.93
2019-03-29T23:17:27.349Z,6.50
2019-03-29T23:20:00.626Z,6.80
2019-03-29T23:22:34.078Z,7.67
2019-03-29T23:25:07.302Z,7.00
2019-03-29T23:27:40.583Z,6.90
2019-03-29T23:30:14.891Z,8.63
2019-03-29T23:32:48.066Z,7.60
2019-03-29T23:35:21.247Z,8.40
2019-03-29T23:37:54.422Z,7.90
2019-03-29T23:40:27.599Z,8.10
2019-03-29T23:43:00.775Z,7.13
2019-03-29T23:45:33.962Z,7.90
2019-03-29T23:48:07.190Z,8.57
2019-03-29T23:50:40.373Z,7.30
2019-03-29T23:53:13.581Z,8.80
2019-03-29T23:55:47.171Z,8.67
2019-03-29T23:58:20.446Z,8.73
